createdAt,value
2017-03-27T00:00:21.175Z,101687.91
2017-03-27T00:01:26.541Z,101694.31
2017-03-27T00:02:30.912Z,101689.76
2017-03-27T00:03:35.590Z,101692.47
2017-03-27T00:04:40.241Z,101688.05
2017-03-27T00:05:44.809Z,101689.68
2017-03-27T00:06:49.200Z,101694.32
2017-03-27T00:07:58.867Z,101696.20
2017-03-27T00:09:03.044Z,101695.95
2017-03-27T00:10:07.559Z,101690.32
2017-03-27T00:11:12.828Z,101696.47
2017-03-27T00:12:17.138Z,101697.45
2017-03-27T00:13:21.695Z,101697.98
2017-03-27T00:14:31.509Z,101697.97
2017-03-27T00:15:35.665Z,101695.47
2017-03-27T00:16:40.788Z,101693.50
2017-03-27T00:17:44.348Z,101697.55
2017-03-27T00:18:48.638Z,101696.70
2017-03-27T00:19:54.104Z,101693.71
2017-03-27T00:20:58.588Z,101694.44
2017-03-27T00:22:02.450Z,101695.64
2017-03-27T00:23:10.951Z,101692.72
2017-03-27T00:24:15.902Z,101690.69
2017-03-27T00:25:20.310Z,101695.19
2017-03-27T00:26:23.525Z,101691.09
2017-03-27T00:27:28.965Z,101692.30
2017-03-27T00:28:34.383Z,101689.59
2017-03-27T00:29:38.647Z,101689.09
2017-03-27T00:30:43.292Z,101691.37
2017-03-27T00:31:47.626Z,101687.36
2017-03-27T00:32:51.509Z,101687.58
2017-03-27T00:33:55.500Z,101690.44
2017-03-27T00:34:59.394Z,101690.48
2017-03-27T00:36:04.640Z,101683.45
2017-03-27T00:37:09.009Z,101690.69
2017-03-27T00:38:13.452Z,101693.22
2017-03-27T00:39:17.925Z,101699.69
2017-03-27T00:40:22.440Z,101694.09
2017-03-27T00:41:26.021Z,101692.95
2017-03-27T00:42:30.135Z,101694.58
2017-03-27T00:43:34.085Z,101691.98
2017-03-27T00:44:38.712Z,101692.54
2017-03-27T00:45:43.608Z,101692.42
2017-03-27T00:46:48.365Z,101694.59
2017-03-27T00:47:52.576Z,101693.22
2017-03-27T00:48:57.096Z,101691.91
2017-03-27T00:50:01.516Z,101692.13
2017-03-27T00:51:05.527Z,101687.47
2017-03-27T00:52:10.230Z,101694.83
2017-03-27T00:53:15.737Z,101689.75
2017-03-27T00:54:19.964Z,101688.47
2017-03-27T00:55:24.512Z,101687.53
2017-03-27T00:56:29.306Z,101688.51
2017-03-27T00:57:34.350Z,101689.41
2017-03-27T00:58:38.781Z,101691.63
2017-03-27T00:59:42.960Z,101688.05
2017-03-27T01:00:47.419Z,101682.07
2017-03-27T01:01:51.366Z,101681.56
2017-03-27T01:02:54.024Z,101687.30
2017-03-27T01:03:56.452Z,101687.14
2017-03-27T01:05:00.816Z,101692.48
2017-03-27T01:06:05.373Z,101694.44
2017-03-27T01:07:09.743Z,101686.94
2017-03-27T01:08:14.517Z,101687.50
2017-03-27T01:09:19.165Z,101688.84
2017-03-27T01:10:23.652Z,101696.28
2017-03-27T01:11:28.226Z,101701.37
2017-03-27T01:12:32.577Z,101694.50
2017-03-27T01:13:37.009Z,101694.39
2017-03-27T01:14:41.677Z,101699.42
2017-03-27T01:15:45.861Z,101696.44
2017-03-27T01:16:49.478Z,101695.55
2017-03-27T01:17:53.878Z,101695.02
2017-03-27T01:18:58.248Z,101698.86
2017-03-27T01:20:02.716Z,101697.82
2017-03-27T01:21:07.227Z,101691.21
2017-03-27T01:22:11.793Z,101696.55
2017-03-27T01:23:16.424Z,101694.09
2017-03-27T01:24:21.793Z,101695.11
2017-03-27T01:25:25.984Z,101689.77
2017-03-27T01:26:30.274Z,101690.13
2017-03-27T01:27:34.816Z,101687.85
2017-03-27T01:28:39.261Z,101696.67
2017-03-27T01:29:43.641Z,101697.33
2017-03-27T01:30:48.154Z,101698.45
2017-03-27T01:31:52.572Z,101694.44
2017-03-27T01:32:56.951Z,101697.15
2017-03-27T01:34:01.454Z,101693.27
2017-03-27T01:35:05.860Z,101695.89
2017-03-27T01:36:11.233Z,101697.23
2017-03-27T01:37:15.644Z,101698.53
2017-03-27T01:38:20.215Z,101698.11
2017-03-27T01:39:24.533Z,101699.51
2017-03-27T01:40:28.887Z,101695.25
2017-03-27T01:41:33.278Z,101699.91
2017-03-27T01:42:37.753Z,101698.02
2017-03-27T01:43:47.408Z,101697.98
2017-03-27T01:44:51.586Z,101695.89
2017-03-27T01:45:55.853Z,101695.13
2017-03-27T01:46:59.069Z,101694.66
2017-03-27T01:48:03.043Z,101702.49
2017-03-27T01:49:08.347Z,101702.73
2017-03-27T01:50:13.497Z,101692.62
2017-03-27T01:51:17.280Z,101699.11
2017-03-27T01:52:22.621Z,101701.20
2017-03-27T01:53:26.998Z,101695.72
2017-03-27T01:54:31.293Z,101694.42
2017-03-27T01:55:36.392Z,101692.31
2017-03-27T01:56:41.481Z,101690.72
2017-03-27T01:57:45.978Z,101693.47
2017-03-27T01:58:50.296Z,101693.48
2017-03-27T01:59:54.817Z,101693.82
2017-03-27T02:00:59.042Z,101697.96
2017-03-27T02:02:03.704Z,101696.59
2017-03-27T02:03:08.229Z,101693.09
2017-03-27T02:04:12.686Z,101689.69
2017-03-27T02:05:17.048Z,101690.52
2017-03-27T02:06:21.602Z,101686.99
2017-03-27T02:07:25.961Z,101691.36
2017-03-27T02:08:30.321Z,101685.31
2017-03-27T02:09:35.487Z,101686.48
2017-03-27T02:10:40.493Z,101693.39
2017-03-27T02:11:44.769Z,101687.28
2017-03-27T02:12:52.266Z,101680.13
2017-03-27T02:13:56.740Z,101677.33
2017-03-27T02:15:01.184Z,101684.77
2017-03-27T02:16:05.683Z,101682.88
2017-03-27T02:17:16.308Z,101685.61
2017-03-27T02:18:20.517Z,101679.64
2017-03-27T02:19:24.951Z,101682.50
2017-03-27T02:20:29.432Z,101681.17
2017-03-27T02:21:33.900Z,101681.63
2017-03-27T02:22:38.397Z,101680.23
2017-03-27T02:23:43.098Z,101675.78
2017-03-27T02:24:47.357Z,101668.63
2017-03-27T02:25:51.895Z,101674.47
2017-03-27T02:26:57.269Z,101668.81
2017-03-27T02:28:01.871Z,101672.45
2017-03-27T02:29:06.381Z,101667.67
2017-03-27T02:30:11.085Z,101672.52
2017-03-27T02:31:15.543Z,101672.91
2017-03-27T02:32:20.554Z,101669.33
2017-03-27T02:33:25.050Z,101673.23
2017-03-27T02:34:29.396Z,101669.33
2017-03-27T02:35:33.969Z,101665.72
2017-03-27T02:36:38.325Z,101667.37
2017-03-27T02:37:43.015Z,101679.33
2017-03-27T02:38:47.293Z,101671.70
2017-03-27T02:39:50.542Z,101668.94
2017-03-27T02:40:54.929Z,101661.82
2017-03-27T02:42:00.277Z,101662.30
2017-03-27T02:43:04.042Z,101666.89
2017-03-27T02:44:06.985Z,101656.52
2017-03-27T02:45:12.302Z,101659.30
2017-03-27T02:46:14.975Z,101663.84
2017-03-27T02:47:19.478Z,101659.12
2017-03-27T02:48:23.864Z,101653.97
2017-03-27T02:49:27.729Z,101661.48
2017-03-27T02:50:32.958Z,101659.33
2017-03-27T02:51:37.347Z,101657.95
2017-03-27T02:52:41.869Z,101659.70
2017-03-27T02:53:46.230Z,101669.36
2017-03-27T02:54:50.729Z,101660.37
2017-03-27T02:55:55.707Z,101659.20
2017-03-27T02:56:59.653Z,101655.73
2017-03-27T02:58:04.053Z,101654.30
2017-03-27T02:59:08.680Z,101654.84
2017-03-27T03:00:13.897Z,101651.22
2017-03-27T03:01:17.645Z,101660.52
2017-03-27T03:02:22.690Z,101654.09
2017-03-27T03:03:27.143Z,101655.05
2017-03-27T03:04:31.565Z,101648.77
2017-03-27T03:05:36.177Z,101654.09
2017-03-27T03:06:41.536Z,101650.77
2017-03-27T03:07:46.417Z,101658.39
2017-03-27T03:08:50.664Z,101652.19
2017-03-27T03:09:55.253Z,101656.87
2017-03-27T03:10:59.595Z,101659.36
2017-03-27T03:12:03.890Z,101659.16
2017-03-27T03:13:08.558Z,101664.44
2017-03-27T03:14:12.489Z,101667.47
2017-03-27T03:15:17.448Z,101660.47
2017-03-27T03:16:22.016Z,101662.44
2017-03-27T03:17:26.295Z,101658.62
2017-03-27T03:18:30.801Z,101662.23
2017-03-27T03:19:35.336Z,101661.27
2017-03-27T03:20:39.942Z,101663.08
2017-03-27T03:21:44.341Z,101659.71
2017-03-27T03:22:48.859Z,101648.78
2017-03-27T03:23:53.300Z,101658.76
2017-03-27T03:24:57.761Z,101661.66
2017-03-27T03:26:02.312Z,101655.55
2017-03-27T03:27:06.942Z,101660.47
2017-03-27T03:28:11.952Z,101664.92
2017-03-27T03:29:16.459Z,101663.28
2017-03-27T03:30:21.845Z,101670.53
2017-03-27T03:31:26.378Z,101671.57
2017-03-27T03:32:35.931Z,101675.84
2017-03-27T03:33:40.665Z,101674.34
2017-03-27T03:34:45.521Z,101673.52
2017-03-27T03:35:50.036Z,101677.00
2017-03-27T03:36:54.451Z,101667.28
2017-03-27T03:37:59.506Z,101681.67
2017-03-27T03:39:04.340Z,101681.34
2017-03-27T03:40:08.890Z,101681.03
2017-03-27T03:41:13.395Z,101685.47
2017-03-27T03:42:18.008Z,101681.25
2017-03-27T03:43:21.626Z,101684.16
2017-03-27T03:44:25.717Z,101683.84
2017-03-27T03:45:29.480Z,101681.59
2017-03-27T03:46:40.833Z,101679.70
2017-03-27T03:47:51.232Z,101677.73
2017-03-27T03:48:56.245Z,101681.64
2017-03-27T03:50:00.712Z,101687.30
2017-03-27T03:51:05.111Z,101683.67
2017-03-27T03:52:09.436Z,101684.67
2017-03-27T03:53:14.154Z,101691.13
2017-03-27T03:54:18.492Z,101688.88
2017-03-27T03:55:23.040Z,101683.16
2017-03-27T03:56:26.612Z,101691.14
2017-03-27T03:57:29.997Z,101688.39
2017-03-27T03:58:34.176Z,101689.00
2017-03-27T03:59:38.682Z,101693.40
2017-03-27T04:00:43.560Z,101692.03
2017-03-27T04:01:48.448Z,101691.19
2017-03-27T04:02:53.037Z,101696.73
2017-03-27T04:03:57.873Z,101691.00
2017-03-27T04:05:01.440Z,101691.11
2017-03-27T04:06:05.524Z,101697.52
2017-03-27T04:07:09.359Z,101695.53
2017-03-27T04:08:12.272Z,101700.84
2017-03-27T04:09:16.959Z,101701.73
2017-03-27T04:10:21.552Z,101696.48
2017-03-27T04:11:26.061Z,101698.92
2017-03-27T04:12:36.601Z,101706.38
2017-03-27T04:13:40.740Z,101704.09
2017-03-27T04:14:45.036Z,101702.98
2017-03-27T04:15:48.820Z,101705.78
2017-03-27T04:16:52.921Z,101703.96
2017-03-27T04:17:57.233Z,101704.55
2017-03-27T04:19:02.725Z,101702.34
2017-03-27T04:20:07.667Z,101707.87
2017-03-27T04:21:11.892Z,101697.55
2017-03-27T04:22:16.537Z,101707.77
2017-03-27T04:23:21.158Z,101709.25
2017-03-27T04:24:25.391Z,101703.63
2017-03-27T04:25:29.774Z,101700.80
2017-03-27T04:26:34.260Z,101697.90
2017-03-27T04:27:39.710Z,101698.42
2017-03-27T04:28:44.072Z,101701.49
2017-03-27T04:29:48.708Z,101705.39
2017-03-27T04:30:53.237Z,101697.30
2017-03-27T04:31:57.333Z,101696.12
2017-03-27T04:33:02.114Z,101698.42
2017-03-27T04:34:07.209Z,101701.16
2017-03-27T04:35:11.692Z,101704.24
2017-03-27T04:36:16.083Z,101700.13
2017-03-27T04:37:20.478Z,101697.22
2017-03-27T04:38:24.919Z,101710.81
2017-03-27T04:39:29.433Z,101708.88
2017-03-27T04:40:34.114Z,101701.12
2017-03-27T04:41:38.705Z,101703.80
2017-03-27T04:42:43.310Z,101699.06
2017-03-27T04:43:47.936Z,101699.02
2017-03-27T04:44:52.108Z,101700.60
2017-03-27T04:45:56.629Z,101703.07
2017-03-27T04:47:01.056Z,101708.97
2017-03-27T04:48:05.496Z,101703.11
2017-03-27T04:49:09.898Z,101711.77
2017-03-27T04:50:14.242Z,101711.56
2017-03-27T04:51:28.581Z,101708.09
2017-03-27T04:52:40.424Z,101711.09
2017-03-27T04:53:44.590Z,101704.83
2017-03-27T04:54:49.507Z,101709.75
2017-03-27T04:55:53.517Z,101710.09
2017-03-27T04:56:58.989Z,101713.23
2017-03-27T04:58:03.369Z,101712.77
2017-03-27T04:59:07.776Z,101711.41
2017-03-27T05:00:12.177Z,101710.36
2017-03-27T05:01:16.583Z,101713.70
2017-03-27T05:02:21.077Z,101715.50
2017-03-27T05:03:25.465Z,101721.61
2017-03-27T05:04:29.907Z,101714.08
2017-03-27T05:05:34.141Z,101718.77
2017-03-27T05:06:38.507Z,101721.61
2017-03-27T05:07:42.886Z,101724.34
2017-03-27T05:08:47.261Z,101720.22
2017-03-27T05:09:51.671Z,101720.77
2017-03-27T05:10:56.055Z,101724.09
2017-03-27T05:12:00.535Z,101721.66
2017-03-27T05:13:04.976Z,101720.81
2017-03-27T05:14:09.398Z,101722.50
2017-03-27T05:15:13.703Z,101719.56
2017-03-27T05:16:18.125Z,101727.36
2017-03-27T05:17:22.509Z,101724.68
2017-03-27T05:18:26.986Z,101727.80
2017-03-27T05:19:31.378Z,101728.69
2017-03-27T05:20:36.012Z,101731.08
2017-03-27T05:21:46.494Z,101735.92
2017-03-27T05:22:51.309Z,101721.83
2017-03-27T05:23:55.758Z,101724.13
2017-03-27T05:25:00.329Z,101731.58
2017-03-27T05:26:04.970Z,101734.05
2017-03-27T05:27:09.337Z,101736.00
2017-03-27T05:28:13.739Z,101735.14
2017-03-27T05:29:18.234Z,101738.69
2017-03-27T05:30:22.815Z,101727.99
2017-03-27T05:31:28.532Z,101732.02
2017-03-27T05:32:33.653Z,101740.55
2017-03-27T05:33:37.330Z,101739.27
2017-03-27T05:34:35.301Z,101739.18
2017-03-27T05:35:39.505Z,101739.61
2017-03-27T05:36:38.978Z,101745.34
2017-03-27T05:37:36.846Z,101737.97
2017-03-27T05:38:41.430Z,101741.06
2017-03-27T05:39:45.274Z,101742.34
2017-03-27T05:40:47.820Z,101740.59
2017-03-27T05:41:51.947Z,101748.03
2017-03-27T05:42:49.944Z,101751.80
2017-03-27T05:43:54.614Z,101744.84
2017-03-27T05:44:52.482Z,101748.22
2017-03-27T05:45:56.965Z,101747.91
2017-03-27T05:47:01.318Z,101744.61
2017-03-27T05:48:06.256Z,101750.11
2017-03-27T05:49:04.141Z,101744.88
2017-03-27T05:50:02.064Z,101744.25
2017-03-27T05:51:07.039Z,101747.41
2017-03-27T05:52:11.626Z,101746.63
2017-03-27T05:53:15.887Z,101744.62
2017-03-27T05:54:20.742Z,101751.33
2017-03-27T05:55:25.673Z,101757.30
2017-03-27T05:56:30.285Z,101759.98
2017-03-27T05:57:34.817Z,101758.00
2017-03-27T05:58:39.280Z,101751.70
2017-03-27T05:59:44.122Z,101756.45
2017-03-27T06:00:49.028Z,101753.34
2017-03-27T06:01:53.399Z,101761.48
2017-03-27T06:02:57.866Z,101756.73
2017-03-27T06:04:02.474Z,101761.39
2017-03-27T06:05:07.028Z,101763.22
2017-03-27T06:06:11.896Z,101768.46
2017-03-27T06:07:16.877Z,101764.58
2017-03-27T06:08:21.513Z,101767.56
2017-03-27T06:09:25.786Z,101769.13
2017-03-27T06:10:30.265Z,101770.44
2017-03-27T06:11:34.987Z,101769.34
2017-03-27T06:12:40.009Z,101776.63
2017-03-27T06:13:44.415Z,101772.27
2017-03-27T06:14:48.903Z,101771.50
2017-03-27T06:15:53.318Z,101764.97
2017-03-27T06:16:59.649Z,101764.58
2017-03-27T06:18:04.245Z,101767.92
2017-03-27T06:19:08.604Z,101769.20
2017-03-27T06:20:13.065Z,101763.94
2017-03-27T06:21:17.600Z,101761.36
2017-03-27T06:22:21.464Z,101767.03
2017-03-27T06:23:24.172Z,101763.96
2017-03-27T06:24:28.988Z,101773.34
2017-03-27T06:25:34.816Z,101774.66
2017-03-27T06:26:39.820Z,101765.59
2017-03-27T06:27:44.095Z,101769.02
2017-03-27T06:28:51.655Z,101765.66
2017-03-27T06:29:55.832Z,101767.39
2017-03-27T06:31:00.365Z,101766.67
2017-03-27T06:32:04.671Z,101762.20
2017-03-27T06:33:09.029Z,101773.70
2017-03-27T06:34:13.425Z,101764.45
2017-03-27T06:35:17.944Z,101770.61
2017-03-27T06:36:22.474Z,101768.16
2017-03-27T06:37:26.869Z,101767.08
2017-03-27T06:38:31.287Z,101765.16
2017-03-27T06:39:36.792Z,101765.14
2017-03-27T06:40:41.149Z,101769.26
2017-03-27T06:41:48.661Z,101763.61
2017-03-27T06:42:52.528Z,101763.48
2017-03-27T06:43:55.649Z,101767.12
2017-03-27T06:44:58.989Z,101769.49
2017-03-27T06:46:03.552Z,101777.64
2017-03-27T06:47:08.161Z,101769.74
2017-03-27T06:48:12.672Z,101772.42
2017-03-27T06:49:18.225Z,101770.69
2017-03-27T06:50:21.688Z,101770.89
2017-03-27T06:51:31.224Z,101768.77
2017-03-27T06:52:35.700Z,101772.43
2017-03-27T06:53:40.765Z,101770.31
2017-03-27T06:54:44.811Z,101768.80
2017-03-27T06:55:42.690Z,101766.98
2017-03-27T06:56:47.112Z,101768.73
2017-03-27T06:57:51.552Z,101769.94
2017-03-27T06:58:58.925Z,101771.62
2017-03-27T07:00:03.492Z,101766.47
2017-03-27T07:01:08.088Z,101767.53
2017-03-27T07:02:12.676Z,101769.81
2017-03-27T07:03:17.732Z,101768.58
2017-03-27T07:04:22.096Z,101768.87
2017-03-27T07:05:26.803Z,101772.21
2017-03-27T07:06:31.136Z,101765.33
2017-03-27T07:07:35.664Z,101769.72
2017-03-27T07:08:40.206Z,101767.10
2017-03-27T07:09:44.411Z,101768.30
2017-03-27T07:10:48.827Z,101769.20
2017-03-27T07:11:53.223Z,101769.55
2017-03-27T07:12:57.709Z,101773.60
2017-03-27T07:14:09.095Z,101770.81
2017-03-27T07:15:17.689Z,101761.48
2017-03-27T07:16:22.104Z,101764.36
2017-03-27T07:17:27.419Z,101762.48
2017-03-27T07:18:32.900Z,101757.32
2017-03-27T07:19:37.691Z,101758.71
2017-03-27T07:20:42.095Z,101754.01
2017-03-27T07:21:40.449Z,101758.45
2017-03-27T07:22:38.462Z,101757.20
2017-03-27T07:23:43.425Z,101750.51
2017-03-27T07:24:47.592Z,101756.48
2017-03-27T07:25:53.699Z,101749.30
2017-03-27T07:26:58.368Z,101749.04
2017-03-27T07:28:03.329Z,101749.19
2017-03-27T07:29:08.076Z,101757.27
2017-03-27T07:30:11.876Z,101749.82
2017-03-27T07:31:14.854Z,101745.66
2017-03-27T07:32:18.697Z,101748.08
2017-03-27T07:33:23.676Z,101741.25
2017-03-27T07:34:27.617Z,101747.18
2017-03-27T07:35:32.712Z,101745.77
2017-03-27T07:36:37.063Z,101744.39
2017-03-27T07:37:41.501Z,101743.77
2017-03-27T07:38:45.698Z,101745.87
2017-03-27T07:39:50.461Z,101744.99
2017-03-27T07:40:54.871Z,101743.94
2017-03-27T07:41:58.361Z,101748.80
2017-03-27T07:43:02.620Z,101746.70
2017-03-27T07:44:06.546Z,101743.22
2017-03-27T07:45:09.826Z,101749.67
2017-03-27T07:46:13.475Z,101746.34
2017-03-27T07:47:17.736Z,101749.87
2017-03-27T07:48:22.309Z,101750.30
2017-03-27T07:49:27.293Z,101746.91
2017-03-27T07:50:33.059Z,101747.61
2017-03-27T07:51:37.184Z,101738.41
2017-03-27T07:52:40.896Z,101746.44
2017-03-27T07:53:46.005Z,101744.52
2017-03-27T07:54:51.573Z,101741.37
2017-03-27T07:55:55.227Z,101751.31
2017-03-27T07:56:59.344Z,101746.41
2017-03-27T07:58:02.855Z,101745.37
2017-03-27T07:59:06.904Z,101750.77
2017-03-27T08:00:11.503Z,101750.30
2017-03-27T08:01:15.956Z,101750.01
2017-03-27T08:02:22.705Z,101744.30
2017-03-27T08:03:27.081Z,101743.98
2017-03-27T08:04:31.719Z,101746.52
2017-03-27T08:05:36.096Z,101737.41
2017-03-27T08:06:40.075Z,101740.62
2017-03-27T08:07:44.834Z,101745.50
2017-03-27T08:08:48.764Z,101744.19
2017-03-27T08:09:53.325Z,101747.27
2017-03-27T08:10:56.988Z,101742.77
2017-03-27T08:12:01.060Z,101740.12
2017-03-27T08:13:05.385Z,101739.85
2017-03-27T08:14:08.065Z,101736.03
2017-03-27T08:15:12.492Z,101731.72
2017-03-27T08:16:16.246Z,101741.97
2017-03-27T08:17:19.852Z,101737.54
2017-03-27T08:18:23.416Z,101742.44
2017-03-27T08:19:26.792Z,101740.59
2017-03-27T08:20:30.783Z,101736.57
2017-03-27T08:21:33.247Z,101743.53
2017-03-27T08:22:37.256Z,101733.27
2017-03-27T08:23:41.762Z,101743.04
2017-03-27T08:24:45.848Z,101737.77
2017-03-27T08:25:50.233Z,101737.78
2017-03-27T08:26:54.018Z,101742.59
2017-03-27T08:27:57.389Z,101745.34
2017-03-27T08:29:00.800Z,101740.30
2017-03-27T08:30:04.329Z,101738.80
2017-03-27T08:31:07.989Z,101734.29
2017-03-27T08:32:11.312Z,101739.38
2017-03-27T08:33:14.838Z,101743.06
2017-03-27T08:34:18.292Z,101736.68
2017-03-27T08:35:21.575Z,101738.97
2017-03-27T08:36:25.027Z,101736.68
2017-03-27T08:37:29.053Z,101741.42
2017-03-27T08:38:31.657Z,101733.04
2017-03-27T08:39:34.347Z,101742.63
2017-03-27T08:40:38.232Z,101736.72
2017-03-27T08:41:42.775Z,101730.10
2017-03-27T08:42:46.460Z,101728.63
2017-03-27T08:43:49.844Z,101733.78
2017-03-27T08:44:58.085Z,101732.40
2017-03-27T08:46:03.526Z,101726.95
2017-03-27T08:47:06.921Z,101728.91
2017-03-27T08:48:10.305Z,101734.19
2017-03-27T08:49:13.663Z,101733.05
2017-03-27T08:50:17.617Z,101729.19
2017-03-27T08:51:20.763Z,101725.47
2017-03-27T08:52:24.240Z,101726.35
2017-03-27T08:53:27.629Z,101729.80
2017-03-27T08:54:31.908Z,101727.06
2017-03-27T08:55:36.285Z,101726.58
2017-03-27T08:56:40.899Z,101730.19
2017-03-27T08:57:45.073Z,101735.45
2017-03-27T08:58:49.410Z,101726.89
2017-03-27T08:59:53.201Z,101731.33
2017-03-27T09:00:57.166Z,101732.24
2017-03-27T09:02:01.545Z,101722.78
2017-03-27T09:03:04.046Z,101721.53
2017-03-27T09:04:08.244Z,101722.05
2017-03-27T09:05:12.261Z,101724.87
2017-03-27T09:06:14.687Z,101720.84
2017-03-27T09:07:18.473Z,101725.78
2017-03-27T09:08:21.744Z,101718.89
2017-03-27T09:09:26.929Z,101720.12
2017-03-27T09:10:30.657Z,101722.77
2017-03-27T09:11:34.571Z,101720.61
2017-03-27T09:12:38.384Z,101722.58
2017-03-27T09:13:43.583Z,101726.78
2017-03-27T09:14:47.408Z,101722.69
2017-03-27T09:15:51.833Z,101725.66
2017-03-27T09:16:55.991Z,101723.91
2017-03-27T09:18:00.378Z,101721.84
2017-03-27T09:19:04.298Z,101726.83
2017-03-27T09:20:08.255Z,101719.30
2017-03-27T09:21:12.039Z,101720.34
2017-03-27T09:22:15.968Z,101720.60
2017-03-27T09:23:18.835Z,101717.64
2017-03-27T09:24:23.212Z,101713.13
2017-03-27T09:25:28.088Z,101722.96
2017-03-27T09:26:32.271Z,101714.94
2017-03-27T09:27:36.809Z,101711.50
2017-03-27T09:28:41.310Z,101717.36
2017-03-27T09:29:45.862Z,101720.73
2017-03-27T09:30:50.476Z,101719.80
2017-03-27T09:31:55.069Z,101721.92
2017-03-27T09:32:58.738Z,101718.66
2017-03-27T09:34:02.893Z,101724.89
2017-03-27T09:35:01.251Z,101721.63
2017-03-27T09:36:05.387Z,101723.02
2017-03-27T09:37:03.213Z,101724.16
2017-03-27T09:38:01.120Z,101722.62
2017-03-27T09:39:06.521Z,101724.67
2017-03-27T09:40:10.132Z,101727.98
2017-03-27T09:41:15.132Z,101722.49
2017-03-27T09:42:18.003Z,101725.80
2017-03-27T09:43:22.810Z,101721.36
2017-03-27T09:44:28.188Z,101724.13
2017-03-27T09:45:32.106Z,101715.70
2017-03-27T09:46:36.683Z,101719.13
2017-03-27T09:47:40.857Z,101719.00
2017-03-27T09:48:45.163Z,101717.47
2017-03-27T09:49:49.228Z,101711.13
2017-03-27T09:50:52.905Z,101717.18
2017-03-27T09:51:56.351Z,101714.27
2017-03-27T09:53:00.229Z,101713.33
2017-03-27T09:54:04.434Z,101710.78
2017-03-27T09:55:09.832Z,101713.16
2017-03-27T09:56:15.316Z,101712.77
2017-03-27T09:57:18.777Z,101701.03
2017-03-27T09:58:23.874Z,101708.55
2017-03-27T09:59:28.282Z,101700.84
2017-03-27T10:00:33.631Z,101704.77
2017-03-27T10:01:38.552Z,101700.02
2017-03-27T10:02:41.789Z,101701.24
2017-03-27T10:03:46.234Z,101701.45
2017-03-27T10:04:51.584Z,101699.89
2017-03-27T10:05:56.030Z,101700.58
2017-03-27T10:06:59.856Z,101704.50
2017-03-27T10:08:04.830Z,101706.59
2017-03-27T10:09:10.473Z,101699.32
2017-03-27T10:10:16.507Z,101699.11
2017-03-27T10:11:21.203Z,101700.14
2017-03-27T10:12:26.599Z,101698.72
2017-03-27T10:13:31.278Z,101702.50
2017-03-27T10:14:35.728Z,101700.59
2017-03-27T10:15:39.048Z,101700.75
2017-03-27T10:16:43.612Z,101699.34
2017-03-27T10:17:48.431Z,101699.55
2017-03-27T10:18:52.344Z,101700.34
2017-03-27T10:19:56.799Z,101697.83
2017-03-27T10:21:01.443Z,101696.53
2017-03-27T10:22:06.008Z,101698.30
2017-03-27T10:23:16.471Z,101695.82
2017-03-27T10:24:20.460Z,101700.30
2017-03-27T10:25:25.392Z,101695.97
2017-03-27T10:26:29.855Z,101696.78
2017-03-27T10:27:34.685Z,101697.22
2017-03-27T10:28:39.665Z,101702.25
2017-03-27T10:29:44.645Z,101693.48
2017-03-27T10:30:49.633Z,101692.58
2017-03-27T10:31:54.008Z,101687.44
2017-03-27T10:32:58.666Z,101683.12
2017-03-27T10:34:03.175Z,101689.17
2017-03-27T10:35:07.731Z,101687.16
2017-03-27T10:36:12.000Z,101687.65
2017-03-27T10:37:16.543Z,101688.72
2017-03-27T10:38:21.281Z,101685.27
2017-03-27T10:39:26.347Z,101678.20
2017-03-27T10:40:30.770Z,101682.66
2017-03-27T10:41:35.204Z,101676.11
2017-03-27T10:42:39.913Z,101677.66
2017-03-27T10:43:44.557Z,101676.78
2017-03-27T10:44:49.548Z,101669.84
2017-03-27T10:45:54.044Z,101677.84
2017-03-27T10:46:58.828Z,101677.64
2017-03-27T10:48:03.265Z,101675.54
2017-03-27T10:49:07.600Z,101671.53
2017-03-27T10:50:12.008Z,101677.72
2017-03-27T10:51:16.674Z,101672.51
2017-03-27T10:52:21.288Z,101671.31
2017-03-27T10:53:26.267Z,101667.09
2017-03-27T10:54:31.660Z,101668.94
2017-03-27T10:55:36.372Z,101670.94
2017-03-27T10:56:41.934Z,101667.58
2017-03-27T10:57:46.759Z,101667.59
2017-03-27T10:58:54.419Z,101661.91
2017-03-27T10:59:58.822Z,101664.83
2017-03-27T11:01:03.886Z,101661.34
2017-03-27T11:02:12.447Z,101664.56
2017-03-27T11:03:16.589Z,101662.16
2017-03-27T11:04:21.213Z,101661.88
2017-03-27T11:05:25.474Z,101656.60
2017-03-27T11:06:35.829Z,101658.80
2017-03-27T11:07:39.968Z,101656.56
2017-03-27T11:08:44.585Z,101660.85
2017-03-27T11:09:49.153Z,101650.64
2017-03-27T11:10:53.749Z,101644.25
2017-03-27T11:11:59.040Z,101652.35
2017-03-27T11:13:03.065Z,101644.05
2017-03-27T11:15:40.496Z,101646.63
2017-03-27T11:16:45.333Z,101643.03
2017-03-27T11:17:54.909Z,101651.72
2017-03-27T11:18:59.394Z,101640.03
2017-03-27T11:20:03.882Z,101641.75
2017-03-27T11:21:08.823Z,101632.06
2017-03-27T11:22:12.817Z,101641.94
2017-03-27T11:23:17.693Z,101640.26
2017-03-27T11:24:20.295Z,101633.96
2017-03-27T11:25:25.100Z,101638.78
2017-03-27T11:26:29.631Z,101640.16
2017-03-27T11:27:33.927Z,101636.95
2017-03-27T11:28:38.184Z,101633.63
2017-03-27T11:29:41.980Z,101642.88
2017-03-27T11:30:45.388Z,101641.11
2017-03-27T11:31:50.998Z,101638.18
2017-03-27T11:32:54.800Z,101642.03
2017-03-27T11:33:58.853Z,101637.34
2017-03-27T11:35:02.976Z,101634.06
2017-03-27T11:36:06.608Z,101636.08
2017-03-27T11:37:16.655Z,101637.00
2017-03-27T11:38:19.952Z,101639.52
2017-03-27T11:39:24.242Z,101634.70
2017-03-27T11:40:27.890Z,101636.74
2017-03-27T11:41:32.192Z,101632.51
2017-03-27T11:42:36.328Z,101632.67
2017-03-27T11:43:40.660Z,101630.21
2017-03-27T11:44:46.180Z,101634.39
2017-03-27T11:45:50.655Z,101629.34
2017-03-27T11:46:54.734Z,101629.75
2017-03-27T11:47:59.335Z,101625.44
2017-03-27T11:49:03.913Z,101625.80
2017-03-27T11:50:12.581Z,101625.33
2017-03-27T11:51:16.688Z,101625.63
2017-03-27T11:52:26.520Z,101615.84
2017-03-27T11:53:31.003Z,101618.09
2017-03-27T11:54:36.126Z,101615.84
2017-03-27T11:55:40.504Z,101614.77
2017-03-27T11:56:45.060Z,101616.61
2017-03-27T11:57:49.601Z,101612.66
2017-03-27T11:59:06.755Z,101610.91
2017-03-27T12:00:11.656Z,101610.97
2017-03-27T12:01:16.147Z,101606.03
2017-03-27T12:02:20.573Z,101609.34
2017-03-27T12:03:24.834Z,101604.50
2017-03-27T12:04:29.375Z,101602.69
2017-03-27T12:05:33.968Z,101601.02
2017-03-27T12:06:39.844Z,101596.86
2017-03-27T12:07:44.572Z,101600.58
2017-03-27T12:08:49.150Z,101593.38
2017-03-27T12:09:53.564Z,101592.36
2017-03-27T12:10:57.945Z,101589.56
2017-03-27T12:12:02.293Z,101589.59
2017-03-27T12:13:06.662Z,101587.92
2017-03-27T12:14:14.120Z,101589.41
2017-03-27T12:15:18.389Z,101584.58
2017-03-27T12:16:22.928Z,101583.90
2017-03-27T12:17:27.490Z,101576.97